createdAt,value
2022-09-06T00:00:20.998Z,72.80
2022-09-06T00:02:48.619Z,72.70
2022-09-06T00:05:23.637Z,72.70
2022-09-06T00:07:51.377Z,72.80
2022-09-06T00:10:19.158Z,72.90
2022-09-06T00:12:53.650Z,72.80
2022-09-06T00:15:30.192Z,72.90
2022-09-06T00:18:01.488Z,72.70
2022-09-06T00:20:36.937Z,72.60
2022-09-06T00:23:12.808Z,72.70
2022-09-06T00:25:42.597Z,72.70
2022-09-06T00:28:16.668Z,72.60
2022-09-06T00:30:44.532Z,72.60
2022-09-06T00:33:19.237Z,72.70
2022-09-06T00:35:52.898Z,72.80
2022-09-06T00:38:34.257Z,72.90
2022-09-06T00:41:09.168Z,72.60
2022-09-06T00:43:36.830Z,72.60
2022-09-06T00:46:11.903Z,72.60
2022-09-06T00:48:47.188Z,72.50
2022-09-06T00:51:16.628Z,72.50
2022-09-06T00:53:44.648Z,72.70
2022-09-06T00:56:19.748Z,72.70
2022-09-06T00:58:54.998Z,72.70
2022-09-06T01:01:29.796Z,72.70
2022-09-06T01:03:57.528Z,72.70
2022-09-06T01:06:35.388Z,72.80
2022-09-06T01:09:03.910Z,72.70
2022-09-06T01:11:37.608Z,72.70
2022-09-06T01:14:17.759Z,72.70
2022-09-06T01:17:10.747Z,72.70
2022-09-06T01:20:02.859Z,72.70
2022-09-06T01:22:36.528Z,72.80
2022-09-06T01:25:33.789Z,72.60
2022-09-06T01:28:07.866Z,72.60
2022-09-06T01:30:39.216Z,72.50
2022-09-06T01:33:31.897Z,72.70
2022-09-06T01:36:09.551Z,72.90
2022-09-06T01:38:43.878Z,73.00
2022-09-06T01:41:18.309Z,73.00
2022-09-06T01:43:48.389Z,73.00
2022-09-06T01:46:22.794Z,73.00
2022-09-06T01:49:06.718Z,73.00
2022-09-06T01:51:52.738Z,72.90
2022-09-06T01:54:26.827Z,72.90
2022-09-06T01:57:04.117Z,73.00
2022-09-06T01:59:42.273Z,73.20
2022-09-06T02:02:14.426Z,73.30
2022-09-06T02:04:51.848Z,73.10
2022-09-06T02:07:30.214Z,73.10
2022-09-06T02:10:07.628Z,73.10
2022-09-06T02:12:37.378Z,73.20
2022-09-06T02:15:21.057Z,73.20
2022-09-06T02:17:54.087Z,73.10
2022-09-06T02:20:29.638Z,73.10
2022-09-06T02:22:57.950Z,73.30
2022-09-06T02:25:34.530Z,73.20
2022-09-06T02:28:08.779Z,73.10
2022-09-06T02:30:45.618Z,72.80
2022-09-06T02:33:30.528Z,72.80
2022-09-06T02:36:12.897Z,73.00
2022-09-06T02:38:41.786Z,72.80
2022-09-06T02:41:17.288Z,72.70
2022-09-06T02:43:44.737Z,72.50
2022-09-06T02:46:20.142Z,72.40
2022-09-06T02:48:48.048Z,72.40
2022-09-06T02:51:21.857Z,72.20
2022-09-06T02:53:49.789Z,72.20
2022-09-06T02:56:23.677Z,72.20
2022-09-06T02:58:51.127Z,72.30
2022-09-06T03:01:19.588Z,72.30
2022-09-06T03:03:53.465Z,72.20
2022-09-06T03:06:22.429Z,72.20
2022-09-06T03:08:56.818Z,72.10
2022-09-06T03:11:24.799Z,71.90
2022-09-06T03:13:59.817Z,72.10
2022-09-06T03:16:33.907Z,71.80
2022-09-06T03:19:09.397Z,71.60
2022-09-06T03:21:37.518Z,71.60
2022-09-06T03:24:11.618Z,71.60
2022-09-06T03:26:39.418Z,71.80
2022-09-06T03:29:13.630Z,71.70
2022-09-06T03:31:48.428Z,71.60
2022-09-06T03:34:22.905Z,71.70
2022-09-06T03:37:03.669Z,71.80
2022-09-06T03:39:31.705Z,71.90
2022-09-06T03:42:05.788Z,72.20
2022-09-06T03:44:33.381Z,72.20
2022-09-06T03:47:08.250Z,71.90
2022-09-06T03:49:35.698Z,71.80
2022-09-06T03:52:09.737Z,71.90
2022-09-06T03:54:38.088Z,71.90
2022-09-06T03:57:13.169Z,72.00
2022-09-06T03:59:41.028Z,72.10
2022-09-06T04:02:14.820Z,72.00
2022-09-06T04:04:42.628Z,72.10
2022-09-06T04:07:16.840Z,72.20
2022-09-06T04:09:51.158Z,72.20
2022-09-06T04:12:19.309Z,72.10
2022-09-06T04:14:53.587Z,71.90
2022-09-06T04:17:21.710Z,71.70
2022-09-06T04:19:55.578Z,71.60
2022-09-06T04:22:22.808Z,71.70
2022-09-06T04:24:56.848Z,72.00
2022-09-06T04:27:24.488Z,72.10
2022-09-06T04:29:58.767Z,71.80
2022-09-06T04:32:26.388Z,71.70
2022-09-06T04:35:07.577Z,71.50
2022-09-06T04:37:42.277Z,71.50
2022-09-06T04:40:16.649Z,71.40
2022-09-06T04:42:50.726Z,71.50
2022-09-06T04:45:29.848Z,71.70
2022-09-06T04:48:04.209Z,71.70
2022-09-06T04:50:31.968Z,71.70
2022-09-06T04:53:06.470Z,71.60
2022-09-06T04:55:34.408Z,71.60
2022-09-06T04:58:09.169Z,71.60
2022-09-06T05:00:46.069Z,71.70
2022-09-06T05:03:19.838Z,71.70
2022-09-06T05:05:53.949Z,71.90
2022-09-06T05:08:27.789Z,72.10
2022-09-06T05:10:55.728Z,72.20
2022-09-06T05:13:23.060Z,72.10
2022-09-06T05:15:56.980Z,72.20
2022-09-06T05:18:30.696Z,72.10
2022-09-06T05:21:05.608Z,72.20
2022-09-06T05:23:32.935Z,72.20
2022-09-06T05:26:07.517Z,72.30
2022-09-06T05:28:35.168Z,72.30
2022-09-06T05:31:14.436Z,72.20
2022-09-06T05:33:42.269Z,72.20
2022-09-06T05:36:22.629Z,72.20
2022-09-06T05:39:05.930Z,72.30
2022-09-06T05:41:34.312Z,72.50
2022-09-06T05:44:15.039Z,72.40
2022-09-06T05:46:50.518Z,72.40
2022-09-06T05:49:17.929Z,72.30
2022-09-06T05:51:52.678Z,72.50
2022-09-06T05:54:20.198Z,72.70
2022-09-06T05:56:55.008Z,72.60
2022-09-06T05:59:24.309Z,72.80
2022-09-06T06:02:05.383Z,72.90
2022-09-06T06:04:43.068Z,73.10
2022-09-06T06:07:10.528Z,73.30
2022-09-06T06:09:44.741Z,73.50
2022-09-06T06:12:12.188Z,73.50
2022-09-06T06:14:46.738Z,73.60
2022-09-06T06:17:14.508Z,73.70
2022-09-06T06:19:48.599Z,73.80
2022-09-06T06:22:16.162Z,73.90
2022-09-06T06:24:50.569Z,74.00
2022-09-06T06:27:18.749Z,74.10
2022-09-06T06:29:52.759Z,74.10
2022-09-06T06:32:26.628Z,74.20
2022-09-06T06:35:01.058Z,74.30
2022-09-06T06:37:41.413Z,74.30
2022-09-06T06:40:15.659Z,74.40
2022-09-06T06:42:43.918Z,74.40
2022-09-06T06:45:11.510Z,74.50
2022-09-06T06:47:47.716Z,74.60
2022-09-06T06:50:15.462Z,74.60
2022-09-06T06:52:49.831Z,74.60
2022-09-06T06:55:17.318Z,74.60
2022-09-06T06:57:51.658Z,74.60
2022-09-06T07:00:19.668Z,74.50
2022-09-06T07:02:54.633Z,74.30
2022-09-06T07:08:22.133Z,74.30
2022-09-06T07:10:56.715Z,74.20
2022-09-06T07:13:25.583Z,74.10
2022-09-06T07:15:59.628Z,74.00
2022-09-06T07:18:33.542Z,74.00
2022-09-06T07:26:33.044Z,73.70
2022-09-06T07:29:08.048Z,73.70
2022-09-06T07:34:33.707Z,73.60
2022-09-06T07:37:14.690Z,73.40
2022-09-06T07:39:49.411Z,73.40
2022-09-06T07:42:23.842Z,73.30
2022-09-06T07:44:51.458Z,73.30
2022-09-06T07:53:24.542Z,73.20
2022-09-06T07:56:00.525Z,73.10
2022-09-06T07:58:28.692Z,73.00
2022-09-06T08:01:20.681Z,72.80
2022-09-06T08:03:54.707Z,72.70
2022-09-06T08:06:25.453Z,72.50
2022-09-06T08:08:59.949Z,72.50
2022-09-06T08:11:29.935Z,72.60
2022-09-06T08:14:04.859Z,72.50
2022-09-06T08:16:32.771Z,72.50
2022-09-06T08:19:09.249Z,72.30
2022-09-06T08:21:36.779Z,72.20
2022-09-06T08:24:13.996Z,72.00
2022-09-06T08:26:50.355Z,71.60
2022-09-06T08:29:19.113Z,71.50
2022-09-06T08:31:53.819Z,71.50
2022-09-06T08:34:21.083Z,71.50
2022-09-06T08:37:01.889Z,71.20
2022-09-06T08:39:42.770Z,70.80
2022-09-06T08:42:11.810Z,70.60
2022-09-06T08:47:29.647Z,70.20
2022-09-06T08:50:00.662Z,70.10
2022-09-06T08:52:49.369Z,70.10
2022-09-06T08:55:31.891Z,70.00
2022-09-06T08:58:05.851Z,69.40
2022-09-06T09:00:41.284Z,69.30
2022-09-06T09:03:30.411Z,69.40
2022-09-06T09:06:05.178Z,69.20
2022-09-06T09:08:45.967Z,68.50
2022-09-06T09:11:23.769Z,68.40
2022-09-06T09:13:51.174Z,68.50
2022-09-06T09:16:25.728Z,68.40
2022-09-06T09:18:54.538Z,68.20
2022-09-06T09:21:32.649Z,68.00
2022-09-06T09:24:04.320Z,67.70
2022-09-06T09:26:45.452Z,67.70
2022-09-06T09:29:14.562Z,67.10
2022-09-06T09:31:57.018Z,66.70
2022-09-06T09:34:42.818Z,65.90
2022-09-06T09:40:13.828Z,66.00
2022-09-06T09:42:47.600Z,65.80
2022-09-06T09:45:23.059Z,65.50
2022-09-06T09:47:57.627Z,65.20
2022-09-06T09:50:36.639Z,65.00
2022-09-06T09:53:10.819Z,64.50
2022-09-06T09:55:45.339Z,64.50
2022-09-06T09:58:31.578Z,64.50
2022-09-06T10:01:18.117Z,64.10
2022-09-06T10:07:15.482Z,63.70
2022-09-06T10:09:44.059Z,63.60
2022-09-06T10:12:23.707Z,63.80
2022-09-06T10:14:57.970Z,63.50
2022-09-06T10:17:31.129Z,63.20
2022-09-06T10:20:10.747Z,63.30
2022-09-06T10:23:04.689Z,63.40
2022-09-06T10:25:47.656Z,63.60
2022-09-06T10:28:30.302Z,63.40
2022-09-06T10:31:16.829Z,63.00
2022-09-06T10:34:07.188Z,62.80
2022-09-06T10:36:51.600Z,62.20
2022-09-06T10:39:26.257Z,61.90
2022-09-06T10:42:12.609Z,62.00
2022-09-06T10:45:01.945Z,62.10
2022-09-06T10:47:34.849Z,61.90
2022-09-06T10:50:12.673Z,61.80
2022-09-06T10:52:42.306Z,61.20
2022-09-06T10:55:18.625Z,61.10
2022-09-06T11:00:47.166Z,60.40
2022-09-06T11:06:25.446Z,59.80
2022-09-06T11:09:12.671Z,59.10
2022-09-06T11:11:55.799Z,58.40
2022-09-06T11:14:30.796Z,58.10
2022-09-06T11:17:07.828Z,57.50
2022-09-06T11:19:43.252Z,57.20
2022-09-06T11:22:35.757Z,56.80
2022-09-06T11:25:34.618Z,56.40
2022-09-06T11:28:09.908Z,56.40
2022-09-06T11:30:45.627Z,56.20
2022-09-06T11:33:39.223Z,55.90
2022-09-06T11:36:45.647Z,55.70
2022-09-06T11:42:14.018Z,55.10
2022-09-06T11:44:57.638Z,55.50
2022-09-06T11:47:44.421Z,55.90
2022-09-06T11:50:44.935Z,55.90
2022-09-06T11:53:17.331Z,55.70
2022-09-06T11:55:52.739Z,55.70
2022-09-06T11:58:26.665Z,55.60
2022-09-06T12:01:19.912Z,55.40
2022-09-06T12:04:06.774Z,55.30
2022-09-06T12:06:52.835Z,55.00
2022-09-06T12:09:27.849Z,54.90
2022-09-06T12:12:06.141Z,54.70
2022-09-06T12:14:48.052Z,54.50
2022-09-06T12:17:15.288Z,54.30
2022-09-06T12:20:10.833Z,53.90
2022-09-06T12:22:37.998Z,53.50
2022-09-06T12:25:22.855Z,53.10
2022-09-06T12:28:01.264Z,52.80
2022-09-06T12:30:44.957Z,53.00
2022-09-06T12:33:34.729Z,53.20
2022-09-06T12:36:46.058Z,53.10
2022-09-06T12:39:13.846Z,53.20
2022-09-06T12:41:48.565Z,53.00
2022-09-06T12:44:22.820Z,52.80
2022-09-06T12:46:51.358Z,51.80
2022-09-06T12:49:27.758Z,51.20
2022-09-06T12:52:13.948Z,50.70
2022-09-06T12:54:46.408Z,50.20
2022-09-06T12:57:28.648Z,49.70
2022-09-06T12:59:57.436Z,49.40
2022-09-06T13:02:36.356Z,48.90
2022-09-06T13:05:06.223Z,48.70
2022-09-06T13:07:42.602Z,48.30
2022-09-06T13:10:14.061Z,47.70
2022-09-06T13:12:50.706Z,47.90
2022-09-06T13:15:22.585Z,48.10
2022-09-06T13:17:58.254Z,47.80
2022-09-06T13:20:28.065Z,47.50
2022-09-06T13:23:12.718Z,47.30
2022-09-06T13:25:51.940Z,47.10
2022-09-06T13:28:33.671Z,47.10
2022-09-06T13:31:09.790Z,46.90
2022-09-06T13:33:44.903Z,46.80
2022-09-06T13:36:40.983Z,46.60
2022-09-06T13:39:15.034Z,46.20
2022-09-06T13:41:42.406Z,46.60
2022-09-06T13:44:23.229Z,46.80
2022-09-06T13:46:57.401Z,47.00
2022-09-06T13:49:34.129Z,47.00
2022-09-06T13:52:08.800Z,46.90
2022-09-06T13:54:37.375Z,46.90
2022-09-06T13:57:06.320Z,47.00
2022-09-06T13:59:39.962Z,46.90
2022-09-06T14:02:09.245Z,46.90
2022-09-06T14:04:43.990Z,46.90
2022-09-06T14:07:12.540Z,46.70
2022-09-06T14:09:46.933Z,46.70
2022-09-06T14:12:20.587Z,46.80
2022-09-06T14:14:54.760Z,47.00
2022-09-06T14:17:29.835Z,47.30
2022-09-06T14:20:06.043Z,47.70
2022-09-06T14:22:34.134Z,48.10
2022-09-06T14:25:01.968Z,48.80
2022-09-06T14:27:36.008Z,49.20
2022-09-06T14:30:03.560Z,49.40
2022-09-06T14:32:37.878Z,49.60
2022-09-06T14:35:07.610Z,49.70
2022-09-06T14:37:43.498Z,49.70
2022-09-06T14:40:24.594Z,49.80
2022-09-06T14:42:59.441Z,49.90
2022-09-06T14:45:35.989Z,49.90
2022-09-06T14:48:10.628Z,49.90
2022-09-06T14:50:45.728Z,50.10
2022-09-06T14:53:39.319Z,50.50
2022-09-06T14:56:13.808Z,50.60
2022-09-06T14:58:48.807Z,50.70
2022-09-06T15:01:18.788Z,51.00
2022-09-06T15:04:06.256Z,51.20
2022-09-06T15:06:34.149Z,51.50
2022-09-06T15:09:07.773Z,51.80
2022-09-06T15:11:47.147Z,52.00
2022-09-06T15:14:17.328Z,52.00
2022-09-06T15:16:55.631Z,52.20
2022-09-06T15:19:25.013Z,52.30
2022-09-06T15:21:58.950Z,52.40
2022-09-06T15:24:26.912Z,52.20
2022-09-06T15:27:04.020Z,52.20
2022-09-06T15:29:32.034Z,52.30
2022-09-06T15:32:06.918Z,52.30
2022-09-06T15:34:40.889Z,52.30
2022-09-06T15:37:15.629Z,52.30
2022-09-06T15:39:50.874Z,52.40
2022-09-06T15:42:18.828Z,52.70
2022-09-06T15:44:46.230Z,53.00
2022-09-06T15:47:21.083Z,53.70
2022-09-06T15:49:48.699Z,54.60
2022-09-06T15:52:22.969Z,55.00
2022-09-06T15:55:19.319Z,55.30
2022-09-06T15:57:47.136Z,55.40
2022-09-06T16:00:22.102Z,55.60
2022-09-06T16:02:51.668Z,55.80
2022-09-06T16:08:20.132Z,56.00
2022-09-06T16:10:48.040Z,56.30
2022-09-06T16:13:17.440Z,56.70
2022-09-06T16:16:01.759Z,56.80
2022-09-06T16:18:29.681Z,57.00
2022-09-06T16:21:03.828Z,57.40
2022-09-06T16:23:31.878Z,57.40
2022-09-06T16:26:05.859Z,57.60
2022-09-06T16:28:34.846Z,57.70
2022-09-06T16:31:10.313Z,57.80
2022-09-06T16:33:39.950Z,57.80
2022-09-06T16:36:18.717Z,57.80
2022-09-06T16:38:54.769Z,57.90
2022-09-06T16:41:38.269Z,58.00
2022-09-06T16:44:05.442Z,58.10
2022-09-06T16:46:40.211Z,58.20
2022-09-06T16:49:14.848Z,58.30
2022-09-06T16:51:42.557Z,58.40
2022-09-06T16:54:19.114Z,58.40
2022-09-06T16:56:47.222Z,58.40
2022-09-06T16:59:23.878Z,58.50
2022-09-06T17:01:58.994Z,58.50
2022-09-06T17:04:33.480Z,58.70
2022-09-06T17:07:08.709Z,58.80
2022-09-06T17:09:42.978Z,59.10
2022-09-06T17:12:10.550Z,59.20
2022-09-06T17:14:45.239Z,59.50
2022-09-06T17:17:20.048Z,59.70
2022-09-06T17:19:47.835Z,60.00
2022-09-06T17:22:25.760Z,60.40
2022-09-06T17:24:56.329Z,60.70
2022-09-06T17:27:30.929Z,61.00
2022-09-06T17:30:05.089Z,61.20
2022-09-06T17:32:32.877Z,61.30
2022-09-06T17:35:01.108Z,61.50
2022-09-06T17:37:38.356Z,61.80
2022-09-06T17:40:16.628Z,62.00
2022-09-06T17:42:50.656Z,62.30
2022-09-06T17:45:18.658Z,62.50
2022-09-06T17:47:54.181Z,62.90
2022-09-06T17:50:21.650Z,63.20
2022-09-06T17:52:58.578Z,63.40
2022-09-06T17:55:31.448Z,63.70
2022-09-06T17:58:06.008Z,64.00
2022-09-06T18:00:33.881Z,64.20
2022-09-06T18:03:07.795Z,64.30
2022-09-06T18:05:41.788Z,64.40
2022-09-06T18:08:15.989Z,64.50
2022-09-06T18:10:46.298Z,64.70
2022-09-06T18:13:20.908Z,64.80
2022-09-06T18:15:51.078Z,64.90
2022-09-06T18:18:19.378Z,65.10
2022-09-06T18:20:53.854Z,65.20
2022-09-06T18:23:22.272Z,65.30
2022-09-06T18:26:07.336Z,65.30
2022-09-06T18:28:35.926Z,65.40
2022-09-06T18:31:17.627Z,65.50
2022-09-06T18:33:46.080Z,65.70
2022-09-06T18:36:20.877Z,65.70
2022-09-06T18:38:55.392Z,65.70
2022-09-06T18:41:47.932Z,65.60
2022-09-06T18:44:15.858Z,65.60
2022-09-06T18:46:53.488Z,65.50
2022-09-06T18:49:21.494Z,65.50
2022-09-06T18:51:55.691Z,65.40
2022-09-06T18:54:23.510Z,65.40
2022-09-06T18:56:57.905Z,65.50
2022-09-06T18:59:25.375Z,65.50
2022-09-06T19:01:59.925Z,65.60
2022-09-06T19:04:37.690Z,65.70
2022-09-06T19:07:05.156Z,65.70
2022-09-06T19:09:38.681Z,65.80
2022-09-06T19:12:12.906Z,65.80
2022-09-06T19:14:40.370Z,65.90
2022-09-06T19:17:15.030Z,66.00
2022-09-06T19:19:43.480Z,66.00
2022-09-06T19:22:18.005Z,66.00
2022-09-06T19:24:45.415Z,66.10
2022-09-06T19:27:19.869Z,66.20
2022-09-06T19:29:47.492Z,66.20
2022-09-06T19:32:21.776Z,66.30
2022-09-06T19:34:49.477Z,66.40
2022-09-06T19:37:27.068Z,66.50
2022-09-06T19:39:55.040Z,66.50
2022-09-06T19:42:30.663Z,66.70
2022-09-06T19:44:57.992Z,66.70
2022-09-06T19:47:32.810Z,66.80
2022-09-06T19:50:00.921Z,66.90
2022-09-06T19:52:35.002Z,67.00
2022-09-06T19:55:08.794Z,67.10
2022-09-06T19:57:37.546Z,67.20
2022-09-06T20:00:12.865Z,67.30
2022-09-06T20:06:31.590Z,67.40
2022-09-06T20:09:23.801Z,67.50
2022-09-06T20:11:57.996Z,67.60
2022-09-06T20:14:26.545Z,67.60
2022-09-06T20:17:16.749Z,67.70
2022-09-06T20:19:49.488Z,67.70
2022-09-06T20:22:23.654Z,67.90
2022-09-06T20:24:50.940Z,68.00
2022-09-06T20:27:24.898Z,68.10
2022-09-06T20:29:52.511Z,68.10
2022-09-06T20:32:26.860Z,68.20
2022-09-06T20:34:54.937Z,68.20
2022-09-06T20:37:35.670Z,68.30
2022-09-06T20:40:10.020Z,68.30
2022-09-06T20:42:48.712Z,68.40
2022-09-06T20:45:16.615Z,68.50
2022-09-06T20:47:50.682Z,68.50
2022-09-06T20:50:17.946Z,68.60
2022-09-06T20:52:45.373Z,68.70
2022-09-06T20:55:18.899Z,68.80
2022-09-06T20:57:47.213Z,68.90
2022-09-06T21:00:22.903Z,69.10
2022-09-06T21:02:50.402Z,69.30
2022-09-06T21:05:25.794Z,69.30
2022-09-06T21:07:59.692Z,69.40
2022-09-06T21:10:33.783Z,69.50
2022-09-06T21:13:01.156Z,69.50
2022-09-06T21:15:35.847Z,69.50
2022-09-06T21:18:11.806Z,69.50
2022-09-06T21:20:45.817Z,69.70
2022-09-06T21:23:13.100Z,69.80
2022-09-06T21:25:47.081Z,69.80
2022-09-06T21:28:20.725Z,69.90
2022-09-06T21:30:54.906Z,70.00
2022-09-06T21:33:22.366Z,69.90
2022-09-06T21:35:56.192Z,70.00
2022-09-06T21:38:30.402Z,70.10
2022-09-06T21:41:03.750Z,70.10
2022-09-06T21:43:38.951Z,70.20
2022-09-06T21:46:07.543Z,70.20
2022-09-06T21:48:47.777Z,70.20
2022-09-06T21:51:16.636Z,70.30
2022-09-06T21:53:51.927Z,70.20
2022-09-06T21:56:27.966Z,70.30
2022-09-06T21:59:02.935Z,70.40
2022-09-06T22:01:32.287Z,70.40
2022-09-06T22:04:06.727Z,70.50
2022-09-06T22:06:37.083Z,70.50
2022-09-06T22:09:17.723Z,70.50
2022-09-06T22:11:51.924Z,70.50
2022-09-06T22:14:25.938Z,70.50
2022-09-06T22:16:54.008Z,70.50
2022-09-06T22:19:27.720Z,70.60
2022-09-06T22:21:55.083Z,70.60
2022-09-06T22:24:35.931Z,70.50
2022-09-06T22:27:04.563Z,70.50
2022-09-06T22:29:38.572Z,70.50
2022-09-06T22:32:06.030Z,70.50
2022-09-06T22:34:39.733Z,70.40
2022-09-06T22:37:19.752Z,70.40
2022-09-06T22:40:00.979Z,70.40
2022-09-06T22:42:30.122Z,70.40
2022-09-06T22:45:03.938Z,70.40
2022-09-06T22:47:37.982Z,70.40
2022-09-06T22:50:05.558Z,70.40
2022-09-06T22:52:39.043Z,70.40
2022-09-06T22:55:06.542Z,70.50
2022-09-06T22:57:34.015Z,70.50
2022-09-06T23:00:08.018Z,70.50
2022-09-06T23:02:41.869Z,70.50
2022-09-06T23:05:09.847Z,70.50
2022-09-06T23:07:43.907Z,70.50
2022-09-06T23:10:12.422Z,70.40
2022-09-06T23:12:45.890Z,70.40
2022-09-06T23:15:13.377Z,70.40
2022-09-06T23:17:47.159Z,70.60
2022-09-06T23:20:14.687Z,70.60
2022-09-06T23:22:49.012Z,70.60
2022-09-06T23:25:16.500Z,70.90
2022-09-06T23:27:49.757Z,71.10
2022-09-06T23:30:16.885Z,71.20
2022-09-06T23:32:50.758Z,71.00
2022-09-06T23:35:24.758Z,71.00
2022-09-06T23:38:11.775Z,71.10
2022-09-06T23:40:39.191Z,71.30
2022-09-06T23:43:12.958Z,71.40
2022-09-06T23:45:40.088Z,71.60
2022-09-06T23:48:14.111Z,71.70
2022-09-06T23:50:43.058Z,72.00
2022-09-06T23:53:17.769Z,72.20
2022-09-06T23:55:45.081Z,72.40
2022-09-06T23:58:20.744Z,72.50
